createdAt,value
2022-11-07T00:00:38.807Z,83.77
2022-11-07T00:03:06.436Z,83.58
2022-11-07T00:05:35.175Z,84.19
2022-11-07T00:08:02.511Z,83.21
2022-11-07T00:10:29.876Z,84.12
2022-11-07T00:12:57.211Z,83.49
2022-11-07T00:15:24.579Z,84.01
2022-11-07T00:17:51.892Z,83.87
2022-11-07T00:20:19.222Z,84.27
2022-11-07T00:22:47.862Z,83.79
2022-11-07T00:25:15.396Z,84.25
2022-11-07T00:27:42.819Z,84.03
2022-11-07T00:30:11.644Z,84.74
2022-11-07T00:32:38.986Z,84.56
2022-11-07T00:35:06.783Z,84.65
2022-11-07T00:37:34.148Z,84.96
2022-11-07T00:40:02.815Z,85.58
2022-11-07T00:42:30.220Z,85.22
2022-11-07T00:44:57.536Z,85.60
2022-11-07T00:47:24.884Z,84.93
2022-11-07T00:49:52.218Z,84.99
2022-11-07T00:52:19.615Z,84.37
2022-11-07T00:54:46.976Z,84.86
2022-11-07T00:57:15.668Z,85.03
2022-11-07T00:59:43.049Z,85.42
2022-11-07T01:02:10.923Z,84.88
2022-11-07T01:04:52.349Z,84.99
2022-11-07T01:07:19.884Z,85.52
2022-11-07T01:09:47.245Z,85.78
2022-11-07T01:12:15.956Z,85.13
2022-11-07T01:14:43.307Z,85.30
2022-11-07T01:17:10.687Z,86.10
2022-11-07T01:19:38.026Z,86.20
2022-11-07T01:22:05.349Z,85.67
2022-11-07T01:24:32.707Z,85.32
2022-11-07T01:27:00.191Z,85.60
2022-11-07T01:29:28.864Z,85.53
2022-11-07T01:31:56.232Z,85.32
2022-11-07T01:34:23.672Z,86.14
2022-11-07T01:36:51.026Z,86.21
2022-11-07T01:39:18.416Z,85.45
2022-11-07T01:41:45.761Z,85.57
2022-11-07T01:44:56.084Z,84.90
2022-11-07T01:47:24.578Z,86.25
2022-11-07T01:49:52.993Z,86.03
2022-11-07T01:52:22.543Z,86.07
2022-11-07T01:54:53.210Z,85.39
2022-11-07T01:57:23.483Z,86.31
2022-11-07T01:59:53.147Z,86.20
2022-11-07T02:02:23.542Z,86.06
2022-11-07T02:04:50.911Z,86.00
2022-11-07T02:07:20.403Z,85.96
2022-11-07T02:09:48.023Z,86.53
2022-11-07T02:12:15.977Z,87.59
2022-11-07T02:14:44.037Z,87.36
2022-11-07T02:17:11.703Z,86.47
2022-11-07T02:19:42.858Z,86.52
2022-11-07T02:22:15.415Z,86.94
2022-11-07T02:24:44.119Z,86.99
2022-11-07T02:27:14.816Z,87.22
2022-11-07T02:29:44.711Z,87.34
2022-11-07T02:32:12.901Z,87.09
2022-11-07T02:34:40.441Z,87.18
2022-11-07T02:37:12.899Z,87.15
2022-11-07T02:39:40.324Z,87.24
2022-11-07T02:42:09.438Z,87.56
2022-11-07T02:44:36.852Z,86.86
2022-11-07T02:47:04.284Z,87.63
2022-11-07T02:49:31.732Z,87.69
2022-11-07T02:51:59.085Z,87.45
2022-11-07T02:54:26.418Z,88.21
2022-11-07T02:56:53.774Z,88.42
2022-11-07T02:59:26.786Z,87.55
2022-11-07T03:01:54.758Z,87.98
2022-11-07T03:04:23.887Z,88.49
2022-11-07T03:06:51.817Z,87.42
2022-11-07T03:09:19.148Z,87.71
2022-11-07T03:11:46.505Z,87.30
2022-11-07T03:14:13.906Z,87.52
2022-11-07T03:16:42.596Z,87.43
2022-11-07T03:19:09.939Z,88.05
2022-11-07T03:21:37.294Z,88.14
2022-11-07T03:24:05.208Z,88.88
2022-11-07T03:26:32.516Z,87.63
2022-11-07T03:29:00.112Z,88.08
2022-11-07T03:31:27.437Z,87.88
2022-11-07T03:33:56.081Z,87.76
2022-11-07T03:36:23.407Z,87.57
2022-11-07T03:38:50.766Z,86.40
2022-11-07T03:41:18.124Z,86.82
2022-11-07T03:43:46.011Z,86.89
2022-11-07T03:46:13.720Z,87.27
2022-11-07T03:48:41.407Z,87.00
2022-11-07T03:51:10.808Z,87.25
2022-11-07T03:53:38.332Z,87.32
2022-11-07T03:56:07.844Z,86.48
2022-11-07T03:58:35.243Z,86.34
2022-11-07T04:01:02.684Z,87.44
2022-11-07T04:03:30.336Z,87.67
2022-11-07T04:05:57.678Z,87.06
2022-11-07T04:08:26.343Z,87.44
2022-11-07T04:10:54.580Z,87.36
2022-11-07T04:13:41.669Z,87.74
2022-11-07T04:16:23.735Z,86.89
2022-11-07T04:18:51.099Z,87.22
2022-11-07T04:21:18.555Z,87.40
2022-11-07T04:23:47.296Z,87.17
2022-11-07T04:26:32.329Z,87.00
2022-11-07T04:28:59.699Z,86.79
2022-11-07T04:31:27.016Z,87.07
2022-11-07T04:33:54.372Z,86.81
2022-11-07T04:36:21.703Z,86.78
2022-11-07T04:38:50.404Z,86.53
2022-11-07T04:41:20.091Z,86.59
2022-11-07T04:43:47.638Z,86.90
2022-11-07T04:46:16.117Z,87.24
2022-11-07T04:48:43.531Z,87.18
2022-11-07T04:51:14.794Z,86.98
2022-11-07T04:53:42.165Z,86.87
2022-11-07T04:56:10.803Z,87.20
2022-11-07T04:58:38.175Z,87.00
2022-11-07T05:01:05.562Z,88.05
2022-11-07T05:03:35.201Z,87.59
2022-11-07T05:06:07.103Z,87.80
2022-11-07T05:08:34.423Z,87.94
2022-11-07T05:11:01.716Z,87.79
2022-11-07T05:13:30.396Z,88.54
2022-11-07T05:15:58.612Z,88.06
2022-11-07T05:18:25.960Z,88.17
2022-11-07T05:20:53.375Z,87.99
2022-11-07T05:23:21.963Z,87.85
2022-11-07T05:25:50.559Z,87.73
2022-11-07T05:28:25.662Z,88.01
2022-11-07T05:30:58.684Z,87.83
2022-11-07T05:33:26.056Z,88.11
2022-11-07T05:35:53.367Z,88.70
2022-11-07T05:38:20.884Z,89.19
2022-11-07T05:40:48.211Z,88.73
2022-11-07T05:43:16.367Z,88.63
2022-11-07T05:45:44.148Z,88.17
2022-11-07T05:48:14.417Z,88.29
2022-11-07T05:50:42.075Z,88.75
2022-11-07T05:53:09.526Z,88.38
2022-11-07T05:55:38.798Z,87.44
2022-11-07T05:58:10.859Z,88.42
2022-11-07T06:00:38.300Z,88.20
2022-11-07T06:03:08.927Z,88.21
2022-11-07T06:05:38.279Z,88.63
2022-11-07T06:08:06.039Z,89.82
2022-11-07T06:10:33.348Z,89.59
2022-11-07T06:13:01.848Z,89.77
2022-11-07T06:15:30.685Z,89.55
2022-11-07T06:18:00.081Z,90.05
2022-11-07T06:20:27.473Z,90.14
2022-11-07T06:22:58.931Z,90.51
2022-11-07T06:25:26.783Z,91.66
2022-11-07T06:27:54.562Z,90.96
2022-11-07T06:30:21.900Z,90.27
2022-11-07T06:32:49.212Z,89.81
2022-11-07T06:35:16.570Z,89.62
2022-11-07T06:37:43.925Z,89.55
2022-11-07T06:40:13.876Z,89.74
2022-11-07T06:42:41.221Z,90.52
2022-11-07T06:45:09.168Z,90.61
2022-11-07T06:47:36.551Z,90.13
2022-11-07T06:50:04.372Z,89.28
2022-11-07T06:52:31.722Z,90.01
2022-11-07T06:54:59.043Z,88.90
2022-11-07T06:57:27.687Z,88.72
2022-11-07T06:59:55.062Z,89.04
2022-11-07T07:02:51.781Z,88.69
2022-11-07T07:05:10.088Z,87.76
2022-11-07T07:07:37.423Z,87.29
2022-11-07T07:10:05.371Z,87.35
2022-11-07T07:12:35.360Z,87.89
2022-11-07T07:15:02.717Z,88.08
2022-11-07T07:17:30.095Z,89.06
2022-11-07T07:19:57.414Z,88.07
2022-11-07T07:22:24.768Z,88.86
2022-11-07T07:24:53.571Z,88.79
2022-11-07T07:27:21.163Z,89.13
2022-11-07T07:29:50.441Z,88.81
2022-11-07T07:32:17.762Z,88.66
2022-11-07T07:34:45.163Z,89.33
2022-11-07T07:37:12.651Z,88.89
2022-11-07T07:39:40.000Z,88.48
2022-11-07T07:42:07.362Z,88.00
2022-11-07T07:44:34.732Z,87.99
2022-11-07T07:47:07.111Z,86.90
2022-11-07T07:49:38.372Z,87.31
2022-11-07T07:52:05.774Z,86.33
2022-11-07T07:54:33.136Z,85.86
2022-11-07T07:57:01.629Z,85.91
2022-11-07T07:59:29.125Z,86.82
2022-11-07T08:01:57.393Z,86.86
2022-11-07T08:04:26.308Z,86.28
2022-11-07T08:06:53.640Z,86.57
2022-11-07T08:09:20.988Z,86.34
2022-11-07T08:11:48.295Z,85.97
2022-11-07T08:14:15.821Z,86.57
2022-11-07T08:16:43.165Z,86.32
2022-11-07T08:19:10.544Z,85.84
2022-11-07T08:21:39.501Z,85.30
2022-11-07T08:24:07.839Z,85.69
2022-11-07T08:26:35.207Z,85.42
2022-11-07T08:29:02.519Z,84.81
2022-11-07T08:31:30.123Z,84.74
2022-11-07T08:33:58.555Z,85.14
2022-11-07T08:36:26.916Z,84.86
2022-11-07T08:38:55.606Z,84.82
2022-11-07T08:41:22.946Z,85.18
2022-11-07T08:43:50.479Z,84.59
2022-11-07T08:46:17.855Z,84.53
2022-11-07T08:48:45.382Z,83.86
2022-11-07T08:51:12.711Z,82.29
2022-11-07T08:53:40.101Z,82.97
2022-11-07T08:56:12.221Z,83.18
2022-11-07T08:58:39.576Z,82.63
2022-11-07T09:01:07.986Z,83.24
2022-11-07T09:03:46.229Z,83.25
2022-11-07T09:06:16.563Z,83.58
2022-11-07T09:08:43.958Z,83.33
2022-11-07T09:11:15.402Z,82.97
2022-11-07T09:13:42.823Z,83.07
2022-11-07T09:16:11.573Z,83.43
2022-11-07T09:18:39.015Z,83.02
2022-11-07T09:21:06.716Z,82.21
2022-11-07T09:23:34.035Z,82.30
2022-11-07T09:26:01.643Z,82.90
2022-11-07T09:28:31.181Z,82.37
2022-11-07T09:30:59.313Z,82.45
2022-11-07T09:33:29.771Z,82.05
2022-11-07T09:36:00.973Z,81.59
2022-11-07T09:38:28.711Z,80.35
2022-11-07T09:41:04.676Z,81.15
2022-11-07T09:43:43.705Z,81.08
2022-11-07T09:46:23.923Z,80.68
2022-11-07T09:48:55.456Z,80.23
2022-11-07T09:51:27.586Z,80.11
2022-11-07T09:53:57.735Z,80.77
2022-11-07T09:56:25.188Z,80.20
2022-11-07T09:58:54.583Z,80.07
2022-11-07T10:01:22.742Z,79.20
2022-11-07T10:04:23.091Z,79.03
2022-11-07T10:06:44.745Z,80.47
2022-11-07T10:09:15.980Z,79.44
2022-11-07T10:11:45.921Z,80.56
2022-11-07T10:14:19.619Z,78.19
2022-11-07T10:16:55.635Z,78.93
2022-11-07T10:19:37.199Z,78.56
2022-11-07T10:22:14.751Z,79.69
2022-11-07T10:24:51.597Z,80.06
2022-11-07T10:27:21.025Z,79.12
2022-11-07T10:29:53.551Z,79.78
2022-11-07T10:32:26.372Z,80.97
2022-11-07T10:34:59.259Z,80.24
2022-11-07T10:37:26.852Z,80.35
2022-11-07T10:39:54.181Z,80.88
2022-11-07T10:42:24.399Z,80.09
2022-11-07T10:44:53.889Z,79.45
2022-11-07T10:47:22.692Z,79.87
2022-11-07T10:49:57.954Z,79.54
2022-11-07T10:52:26.596Z,79.31
2022-11-07T10:55:07.608Z,79.48
2022-11-07T10:57:36.192Z,78.87
2022-11-07T11:00:08.107Z,79.54
2022-11-07T11:02:45.861Z,78.81
2022-11-07T11:05:25.060Z,79.18
2022-11-07T11:07:52.955Z,78.99
2022-11-07T11:10:22.470Z,79.10
2022-11-07T11:12:50.388Z,79.08
2022-11-07T11:15:21.263Z,78.85
2022-11-07T11:17:48.960Z,79.97
2022-11-07T11:20:37.782Z,80.54
2022-11-07T11:23:07.779Z,80.48
2022-11-07T11:25:46.447Z,80.65
2022-11-07T11:28:20.410Z,80.82
2022-11-07T11:30:54.310Z,80.34
2022-11-07T11:33:23.983Z,80.33
2022-11-07T11:35:54.712Z,81.36
2022-11-07T11:38:25.020Z,81.14
2022-11-07T11:41:04.714Z,80.87
2022-11-07T11:43:41.338Z,81.26
2022-11-07T11:46:14.735Z,80.20
2022-11-07T11:48:46.201Z,81.41
2022-11-07T11:51:16.060Z,80.68
2022-11-07T11:53:43.401Z,82.36
2022-11-07T11:56:26.662Z,85.74
2022-11-07T11:59:05.480Z,86.57
2022-11-07T12:01:39.086Z,88.70
2022-11-07T12:04:29.279Z,90.21
2022-11-07T12:07:03.671Z,90.65
2022-11-07T12:09:37.516Z,92.90
2022-11-07T12:12:20.727Z,96.51
2022-11-07T12:15:03.425Z,96.82
2022-11-07T12:17:37.231Z,97.10
2022-11-07T12:20:13.537Z,97.00
2022-11-07T12:22:49.055Z,97.87
2022-11-07T12:25:22.391Z,97.46
2022-11-07T12:27:54.264Z,98.53
2022-11-07T12:30:23.977Z,99.51
2022-11-07T12:33:02.100Z,99.53
2022-11-07T12:35:43.107Z,100.00
2022-11-07T12:38:46.498Z,100.00
2022-11-07T12:41:22.967Z,100.00
2022-11-07T12:44:00.929Z,100.00
2022-11-07T12:46:35.940Z,100.00
2022-11-07T12:49:19.524Z,100.00
2022-11-07T12:51:52.779Z,100.00
2022-11-07T12:54:37.516Z,100.00
2022-11-07T12:57:08.889Z,100.00
2022-11-07T12:59:37.709Z,100.00
2022-11-07T13:02:10.161Z,100.00
2022-11-07T13:04:43.044Z,100.00
2022-11-07T13:07:18.701Z,100.00
2022-11-07T13:09:52.848Z,100.00
2022-11-07T13:12:25.907Z,100.00
2022-11-07T13:14:53.999Z,100.00
2022-11-07T13:17:24.028Z,100.00
2022-11-07T13:20:03.553Z,100.00
2022-11-07T13:22:35.947Z,100.00
2022-11-07T13:25:24.390Z,100.00
2022-11-07T13:28:07.372Z,100.00
2022-11-07T13:30:36.911Z,100.00
2022-11-07T13:33:05.344Z,100.00
2022-11-07T13:35:35.433Z,100.00
2022-11-07T13:38:08.538Z,100.00
2022-11-07T13:40:39.208Z,100.00
2022-11-07T13:43:12.643Z,100.00
2022-11-07T13:45:42.763Z,100.00
2022-11-07T13:48:16.734Z,100.00
2022-11-07T13:50:50.738Z,100.00
2022-11-07T13:53:22.142Z,100.00
2022-11-07T13:55:52.365Z,100.00
2022-11-07T13:58:19.912Z,100.00
2022-11-07T14:00:47.392Z,99.76
2022-11-07T14:03:26.004Z,98.90
2022-11-07T14:05:55.239Z,99.24
2022-11-07T14:08:25.312Z,99.43
2022-11-07T14:10:53.413Z,98.88
2022-11-07T14:13:23.588Z,98.06
2022-11-07T14:15:54.164Z,98.96
2022-11-07T14:18:22.514Z,98.96
2022-11-07T14:20:50.782Z,98.88
2022-11-07T14:23:22.272Z,98.62
2022-11-07T14:25:57.830Z,98.52
2022-11-07T14:28:25.780Z,97.02
2022-11-07T14:30:53.637Z,96.57
2022-11-07T14:33:22.751Z,96.42
2022-11-07T14:35:52.037Z,96.79
2022-11-07T14:38:24.931Z,95.90
2022-11-07T14:40:53.195Z,94.02
2022-11-07T14:43:22.284Z,94.32
2022-11-07T14:46:11.918Z,94.36
2022-11-07T14:48:38.940Z,94.37
2022-11-07T14:51:06.587Z,93.77
2022-11-07T14:53:49.609Z,93.88
2022-11-07T14:56:19.001Z,93.98
2022-11-07T14:58:46.739Z,92.64
2022-11-07T15:01:21.829Z,92.53
2022-11-07T15:03:54.034Z,92.79
2022-11-07T15:06:24.774Z,92.41
2022-11-07T15:09:01.268Z,91.92
2022-11-07T15:11:32.296Z,92.71
2022-11-07T15:14:01.557Z,91.79
2022-11-07T15:16:33.432Z,92.33
2022-11-07T15:19:02.449Z,91.28
2022-11-07T15:21:31.989Z,91.53
2022-11-07T15:24:02.453Z,91.83
2022-11-07T15:26:32.132Z,90.04
2022-11-07T15:29:12.651Z,91.26
2022-11-07T15:31:41.348Z,91.78
2022-11-07T15:34:11.904Z,91.80
2022-11-07T15:36:41.350Z,91.02
2022-11-07T15:39:13.748Z,92.07
2022-11-07T15:41:41.120Z,92.74
2022-11-07T15:44:08.523Z,92.94
2022-11-07T15:46:37.216Z,92.32
2022-11-07T15:49:05.567Z,93.09
2022-11-07T15:51:33.070Z,92.93
2022-11-07T15:54:00.476Z,91.96
2022-11-07T15:56:29.363Z,91.47
2022-11-07T15:58:56.867Z,91.11
2022-11-07T16:01:24.504Z,91.12
2022-11-07T16:03:51.947Z,90.31
2022-11-07T16:06:25.910Z,89.62
2022-11-07T16:08:53.475Z,88.92
2022-11-07T16:11:20.959Z,88.44
2022-11-07T16:13:51.000Z,88.67
2022-11-07T16:16:20.384Z,88.44
2022-11-07T16:18:49.674Z,88.60
2022-11-07T16:21:17.452Z,88.62
2022-11-07T16:23:47.916Z,88.50
2022-11-07T16:26:16.803Z,88.99
2022-11-07T16:28:45.173Z,88.39
2022-11-07T16:31:13.831Z,88.32
2022-11-07T16:33:41.333Z,89.11
2022-11-07T16:36:18.844Z,88.92
2022-11-07T16:38:46.156Z,89.48
2022-11-07T16:41:13.933Z,89.64
2022-11-07T16:43:41.628Z,89.11
2022-11-07T16:46:15.171Z,89.76
2022-11-07T16:48:42.830Z,88.79
2022-11-07T16:51:14.632Z,89.44
2022-11-07T16:53:42.204Z,89.31
2022-11-07T16:56:18.695Z,89.28
2022-11-07T16:58:46.019Z,89.77
2022-11-07T17:01:14.726Z,89.82
2022-11-07T17:03:42.139Z,89.36
2022-11-07T17:06:19.264Z,90.08
2022-11-07T17:08:47.176Z,89.74
2022-11-07T17:11:15.618Z,90.36
2022-11-07T17:13:43.291Z,89.88
2022-11-07T17:16:16.611Z,90.12
2022-11-07T17:18:44.545Z,89.51
2022-11-07T17:21:22.152Z,88.94
2022-11-07T17:23:49.744Z,88.98
2022-11-07T17:26:20.404Z,88.98
2022-11-07T17:28:48.159Z,88.70
2022-11-07T17:31:16.812Z,88.14
2022-11-07T17:33:44.166Z,88.73
2022-11-07T17:36:24.158Z,88.40
2022-11-07T17:38:52.837Z,88.07
2022-11-07T17:41:20.308Z,88.26
2022-11-07T17:43:48.289Z,87.85
2022-11-07T17:46:18.520Z,88.09
2022-11-07T17:48:47.404Z,87.76
2022-11-07T17:51:15.347Z,87.61
2022-11-07T17:53:43.763Z,87.26
2022-11-07T17:56:16.941Z,88.41
2022-11-07T17:58:45.116Z,87.48
2022-11-07T18:01:20.823Z,87.64
2022-11-07T18:03:48.512Z,86.87
2022-11-07T18:06:15.880Z,87.17
2022-11-07T18:08:52.122Z,86.92
2022-11-07T18:11:20.387Z,87.82
2022-11-07T18:13:48.975Z,87.14
2022-11-07T18:16:19.658Z,87.02
2022-11-07T18:18:47.118Z,87.10
2022-11-07T18:21:14.835Z,87.52
2022-11-07T18:23:42.675Z,87.63
2022-11-07T18:26:11.485Z,87.96
2022-11-07T18:28:40.319Z,88.67
2022-11-07T18:31:10.202Z,89.27
2022-11-07T18:33:39.799Z,89.10
2022-11-07T18:36:09.089Z,90.54
2022-11-07T18:38:36.711Z,91.76
2022-11-07T18:41:07.090Z,91.88
2022-11-07T18:43:34.455Z,91.45
2022-11-07T18:46:01.899Z,92.53
2022-11-07T18:48:30.440Z,92.48
2022-11-07T18:51:00.387Z,92.34
2022-11-07T18:53:29.883Z,92.73
2022-11-07T18:55:58.298Z,92.71
2022-11-07T18:58:26.148Z,92.80
2022-11-07T19:00:54.916Z,92.73
2022-11-07T19:03:22.388Z,92.49
2022-11-07T19:05:50.512Z,92.43
2022-11-07T19:08:19.492Z,92.76
2022-11-07T19:10:46.992Z,92.89
2022-11-07T19:13:14.296Z,92.59
2022-11-07T19:15:41.636Z,91.99
2022-11-07T19:18:08.987Z,91.44
2022-11-07T19:20:39.340Z,91.23
2022-11-07T19:23:06.727Z,90.52
2022-11-07T19:25:39.848Z,90.15
2022-11-07T19:28:07.300Z,90.23
2022-11-07T19:30:35.905Z,89.38
2022-11-07T19:33:04.117Z,89.46
2022-11-07T19:35:31.887Z,89.46
2022-11-07T19:37:59.403Z,89.36
2022-11-07T19:40:26.944Z,89.37
2022-11-07T19:42:56.284Z,89.36
2022-11-07T19:45:26.152Z,88.77
2022-11-07T19:47:53.609Z,89.74
2022-11-07T19:50:21.972Z,88.93
2022-11-07T19:52:49.723Z,88.50
2022-11-07T19:55:17.505Z,88.93
2022-11-07T19:57:44.850Z,88.29
2022-11-07T20:00:14.652Z,87.77
2022-11-07T20:02:44.941Z,87.24
2022-11-07T20:05:12.615Z,88.32
2022-11-07T20:07:40.439Z,87.73
2022-11-07T20:10:08.854Z,87.94
2022-11-07T20:12:36.266Z,87.67
2022-11-07T20:15:03.674Z,87.88
2022-11-07T20:17:32.329Z,88.22
2022-11-07T20:20:03.948Z,87.82
2022-11-07T20:22:33.645Z,87.83
2022-11-07T20:25:01.053Z,87.73
2022-11-07T20:27:28.592Z,87.46
2022-11-07T20:29:58.199Z,87.33
2022-11-07T20:32:25.653Z,87.51
2022-11-07T20:34:54.539Z,87.24
2022-11-07T20:37:22.672Z,86.80
2022-11-07T20:39:50.485Z,87.53
2022-11-07T20:42:18.158Z,87.37
2022-11-07T20:44:45.586Z,87.82
2022-11-07T20:47:13.130Z,87.59
2022-11-07T20:49:41.942Z,87.71
2022-11-07T20:52:10.692Z,87.61
2022-11-07T20:54:38.293Z,87.45
2022-11-07T20:57:05.804Z,87.58
2022-11-07T20:59:33.277Z,86.98
2022-11-07T21:02:03.490Z,87.39
2022-11-07T21:04:49.926Z,86.47
2022-11-07T21:07:23.435Z,86.40
2022-11-07T21:09:51.131Z,86.72
2022-11-07T21:12:18.475Z,86.40
2022-11-07T21:14:45.788Z,86.33
2022-11-07T21:17:13.176Z,86.28
2022-11-07T21:19:40.543Z,85.64
2022-11-07T21:22:07.899Z,86.53
2022-11-07T21:24:36.552Z,86.06
2022-11-07T21:27:05.744Z,86.45
2022-11-07T21:29:33.186Z,86.04
2022-11-07T21:32:00.991Z,85.74
2022-11-07T21:34:28.313Z,85.98
2022-11-07T21:36:55.659Z,86.14
2022-11-07T21:39:22.991Z,86.10
2022-11-07T21:41:51.639Z,85.95
2022-11-07T21:44:19.055Z,85.39
2022-11-07T21:46:46.389Z,85.71
2022-11-07T21:49:13.732Z,85.07
2022-11-07T21:51:41.056Z,85.84
2022-11-07T21:54:08.443Z,86.12
2022-11-07T21:56:37.827Z,85.28
2022-11-07T21:59:08.380Z,86.08
2022-11-07T22:01:36.872Z,86.35
2022-11-07T22:04:07.852Z,85.56
2022-11-07T22:06:37.890Z,85.24
2022-11-07T22:09:05.918Z,85.53
2022-11-07T22:11:33.313Z,86.28
2022-11-07T22:14:00.855Z,86.72
2022-11-07T22:16:29.915Z,86.81
2022-11-07T22:18:57.331Z,86.41
2022-11-07T22:21:24.702Z,85.38
2022-11-07T22:23:52.123Z,85.39
2022-11-07T22:26:20.943Z,85.82
2022-11-07T22:28:48.887Z,85.74
2022-11-07T22:31:18.603Z,85.43
2022-11-07T22:33:47.595Z,85.74
2022-11-07T22:36:15.040Z,85.56
2022-11-07T22:38:42.457Z,86.04
2022-11-07T22:41:11.892Z,85.82
2022-11-07T22:43:39.652Z,85.42
2022-11-07T22:46:10.039Z,85.67
2022-11-07T22:48:37.758Z,85.27
2022-11-07T22:51:08.233Z,85.15
2022-11-07T22:53:36.155Z,85.97
2022-11-07T22:56:07.768Z,85.99
2022-11-07T22:58:35.124Z,85.67
2022-11-07T23:01:02.453Z,85.95
2022-11-07T23:03:30.031Z,85.25
2022-11-07T23:05:57.381Z,85.72
2022-11-07T23:08:26.067Z,85.89
2022-11-07T23:11:40.227Z,85.70
2022-11-07T23:13:47.907Z,87.10
2022-11-07T23:16:22.531Z,87.72
2022-11-07T23:18:49.961Z,87.91
2022-11-07T23:21:18.124Z,88.67
2022-11-07T23:23:47.182Z,88.34
2022-11-07T23:26:17.355Z,88.24
2022-11-07T23:28:45.251Z,88.45
2022-11-07T23:31:13.355Z,88.93
2022-11-07T23:33:41.516Z,89.43
2022-11-07T23:36:11.656Z,88.94
2022-11-07T23:38:39.072Z,89.74
2022-11-07T23:41:09.468Z,89.76
2022-11-07T23:43:36.916Z,90.36
2022-11-07T23:46:21.940Z,90.93
2022-11-07T23:49:11.885Z,90.26
2022-11-07T23:51:41.918Z,90.59
2022-11-07T23:54:26.857Z,90.67
2022-11-07T23:56:55.553Z,90.91
2022-11-07T23:59:40.524Z,91.76
